createdAt,value
2022-08-26T00:01:19.458Z,46.71
2022-08-26T00:03:55.988Z,46.83
2022-08-26T00:06:22.749Z,45.02
2022-08-26T00:08:49.368Z,45.15
2022-08-26T00:11:16.099Z,44.69
2022-08-26T00:13:55.920Z,44.63
2022-08-26T00:16:28.218Z,45.63
2022-08-26T00:18:57.476Z,45.26
2022-08-26T00:21:24.837Z,44.86
2022-08-26T00:23:51.585Z,46.18
2022-08-26T00:26:18.895Z,47.63
2022-08-26T00:28:47.939Z,47.42
2022-08-26T00:31:14.609Z,47.46
2022-08-26T00:33:41.897Z,48.30
2022-08-26T00:36:14.435Z,48.36
2022-08-26T00:38:47.743Z,47.98
2022-08-26T00:41:14.980Z,49.06
2022-08-26T00:43:47.287Z,47.16
2022-08-26T00:46:25.228Z,46.51
2022-08-26T00:48:59.504Z,45.68
2022-08-26T00:51:29.772Z,45.54
2022-08-26T00:54:10.690Z,46.16
2022-08-26T00:56:57.795Z,46.48
2022-08-26T00:59:32.657Z,46.49
2022-08-26T01:02:01.004Z,47.18
2022-08-26T01:04:32.038Z,48.98
2022-08-26T01:06:58.989Z,48.32
2022-08-26T01:09:26.526Z,49.30
2022-08-26T01:11:57.365Z,48.45
2022-08-26T01:14:29.436Z,48.38
2022-08-26T01:16:56.205Z,48.83
2022-08-26T01:19:29.679Z,47.54
2022-08-26T01:22:07.918Z,47.89
2022-08-26T01:24:37.900Z,46.97
2022-08-26T01:27:09.342Z,46.17
2022-08-26T01:29:40.875Z,46.21
2022-08-26T01:32:11.283Z,49.08
2022-08-26T01:34:40.361Z,48.42
2022-08-26T01:37:15.933Z,49.04
2022-08-26T01:39:46.810Z,48.16
2022-08-26T01:42:16.708Z,48.01
2022-08-26T01:45:05.480Z,47.96
2022-08-26T01:47:36.821Z,47.61
2022-08-26T01:50:15.793Z,48.67
2022-08-26T01:52:56.859Z,50.97
2022-08-26T01:55:32.255Z,49.84
2022-08-26T01:58:06.854Z,49.12
2022-08-26T02:00:35.213Z,48.67
2022-08-26T02:03:04.457Z,48.63
2022-08-26T02:05:31.696Z,50.55
2022-08-26T02:07:59.120Z,49.39
2022-08-26T02:10:26.622Z,50.37
2022-08-26T02:12:53.320Z,50.51
2022-08-26T02:15:22.260Z,50.77
2022-08-26T02:17:49.894Z,49.84
2022-08-26T02:20:20.870Z,51.25
2022-08-26T02:22:50.052Z,53.32
2022-08-26T02:25:31.816Z,52.79
2022-08-26T02:27:59.835Z,52.47
2022-08-26T02:30:31.608Z,52.40
2022-08-26T02:33:02.710Z,52.99
2022-08-26T02:35:31.946Z,51.56
2022-08-26T02:37:59.716Z,50.66
2022-08-26T02:40:32.022Z,50.17
2022-08-26T02:42:58.760Z,51.23
2022-08-26T02:45:29.700Z,51.57
2022-08-26T02:47:57.459Z,51.41
2022-08-26T02:50:25.815Z,50.46
2022-08-26T02:52:53.262Z,50.53
2022-08-26T02:55:20.539Z,48.67
2022-08-26T02:57:47.312Z,47.66
2022-08-26T03:00:15.082Z,47.53
2022-08-26T03:02:42.001Z,48.63
2022-08-26T03:05:09.332Z,50.02
2022-08-26T03:07:36.131Z,50.27
2022-08-26T03:10:08.284Z,50.60
2022-08-26T03:12:35.720Z,50.44
2022-08-26T03:15:02.385Z,50.74
2022-08-26T03:17:43.797Z,50.47
2022-08-26T03:20:11.029Z,50.25
2022-08-26T03:22:40.496Z,50.17
2022-08-26T03:25:10.644Z,52.62
2022-08-26T03:27:37.618Z,54.45
2022-08-26T03:30:05.595Z,54.65
2022-08-26T03:32:32.225Z,55.15
2022-08-26T03:34:59.220Z,54.80
2022-08-26T03:37:26.640Z,54.56
2022-08-26T03:39:54.079Z,52.52
2022-08-26T03:42:21.458Z,51.64
2022-08-26T03:44:48.734Z,51.53
2022-08-26T03:47:15.451Z,51.91
2022-08-26T03:49:42.865Z,50.04
2022-08-26T03:52:09.811Z,50.45
2022-08-26T03:54:36.765Z,50.65
2022-08-26T03:57:03.929Z,50.40
2022-08-26T03:59:32.022Z,49.36
2022-08-26T04:02:01.474Z,49.24
2022-08-26T04:04:29.007Z,49.63
2022-08-26T04:06:59.514Z,49.28
2022-08-26T04:09:27.222Z,49.23
2022-08-26T04:11:56.011Z,49.32
2022-08-26T04:14:26.318Z,49.72
2022-08-26T04:16:55.247Z,49.71
2022-08-26T04:19:24.412Z,49.71
2022-08-26T04:21:54.768Z,50.04
2022-08-26T04:24:26.417Z,50.95
2022-08-26T04:26:54.696Z,52.29
2022-08-26T04:29:26.638Z,52.04
2022-08-26T04:31:55.622Z,52.33
2022-08-26T04:34:28.668Z,51.87
2022-08-26T04:36:56.384Z,53.33
2022-08-26T04:39:23.691Z,55.07
2022-08-26T04:41:52.229Z,53.00
2022-08-26T04:44:22.091Z,51.98
2022-08-26T04:46:48.799Z,51.38
2022-08-26T04:49:15.698Z,50.84
2022-08-26T04:51:42.358Z,53.54
2022-08-26T04:54:10.701Z,53.01
2022-08-26T04:56:40.901Z,54.03
2022-08-26T04:59:16.723Z,53.08
2022-08-26T05:01:51.574Z,51.42
2022-08-26T05:04:20.684Z,53.91
2022-08-26T05:06:48.733Z,53.77
2022-08-26T05:09:16.704Z,53.55
2022-08-26T05:11:43.334Z,53.03
2022-08-26T05:14:10.121Z,52.19
2022-08-26T05:16:37.628Z,50.85
2022-08-26T05:19:07.583Z,52.49
2022-08-26T05:21:35.954Z,51.71
2022-08-26T05:24:02.965Z,52.30
2022-08-26T05:26:31.496Z,51.63
2022-08-26T05:28:58.334Z,50.85
2022-08-26T05:31:29.947Z,50.15
2022-08-26T05:33:57.346Z,50.27
2022-08-26T05:36:27.676Z,50.91
2022-08-26T05:38:55.464Z,50.45
2022-08-26T05:41:22.019Z,50.81
2022-08-26T05:43:48.728Z,49.99
2022-08-26T05:46:15.576Z,48.57
2022-08-26T05:48:44.331Z,48.88
2022-08-26T05:51:12.189Z,47.71
2022-08-26T05:53:43.739Z,47.13
2022-08-26T05:56:12.299Z,46.98
2022-08-26T05:58:40.580Z,46.13
2022-08-26T06:01:07.207Z,46.81
2022-08-26T06:03:37.292Z,46.27
2022-08-26T06:06:06.590Z,45.76
2022-08-26T06:08:33.773Z,46.40
2022-08-26T06:11:03.632Z,45.62
2022-08-26T06:13:34.695Z,45.53
2022-08-26T06:16:05.852Z,45.05
2022-08-26T06:18:36.356Z,45.33
2022-08-26T06:21:35.407Z,44.63
2022-08-26T06:24:08.948Z,45.49
2022-08-26T06:26:36.721Z,44.58
2022-08-26T06:29:05.048Z,44.61
2022-08-26T06:31:33.469Z,44.51
2022-08-26T06:34:01.316Z,43.17
2022-08-26T06:36:30.199Z,44.07
2022-08-26T06:39:01.599Z,44.41
2022-08-26T06:41:28.616Z,45.44
2022-08-26T06:43:56.628Z,44.42
2022-08-26T06:46:23.381Z,45.34
2022-08-26T06:48:54.001Z,44.76
2022-08-26T06:51:28.255Z,44.04
2022-08-26T06:53:57.598Z,44.78
2022-08-26T06:56:33.023Z,45.07
2022-08-26T06:59:00.198Z,44.79
2022-08-26T07:01:32.691Z,45.20
2022-08-26T07:04:01.527Z,46.40
2022-08-26T07:06:28.660Z,46.54
2022-08-26T07:09:01.237Z,47.35
2022-08-26T07:11:31.656Z,48.44
2022-08-26T07:13:58.665Z,47.75
2022-08-26T07:16:26.461Z,45.17
2022-08-26T07:18:54.883Z,44.95
2022-08-26T07:21:23.062Z,43.98
2022-08-26T07:23:51.640Z,44.00
2022-08-26T07:26:23.169Z,44.07
2022-08-26T07:28:53.761Z,43.69
2022-08-26T07:31:23.776Z,43.92
2022-08-26T07:33:51.197Z,43.07
2022-08-26T07:36:20.469Z,43.00
2022-08-26T07:38:47.383Z,43.30
2022-08-26T07:41:17.460Z,43.99
2022-08-26T07:43:44.631Z,44.09
2022-08-26T07:46:16.379Z,43.31
2022-08-26T07:48:46.075Z,43.24
2022-08-26T07:51:15.124Z,44.24
2022-08-26T07:53:47.929Z,45.37
2022-08-26T07:56:18.905Z,44.60
2022-08-26T07:58:50.882Z,46.23
2022-08-26T08:01:24.523Z,45.97
2022-08-26T08:03:54.220Z,45.54
2022-08-26T08:06:27.161Z,45.57
2022-08-26T08:08:54.505Z,45.37
2022-08-26T08:11:22.212Z,45.68
2022-08-26T08:13:55.991Z,45.82
2022-08-26T08:16:28.423Z,45.15
2022-08-26T08:18:59.209Z,44.51
2022-08-26T08:21:29.078Z,41.96
2022-08-26T08:23:57.280Z,41.29
2022-08-26T08:26:25.538Z,38.61
2022-08-26T08:28:57.190Z,38.19
2022-08-26T08:31:56.018Z,38.49
2022-08-26T08:34:18.381Z,37.82
2022-08-26T08:36:45.898Z,38.41
2022-08-26T08:39:12.812Z,39.84
2022-08-26T08:41:57.969Z,39.59
2022-08-26T08:47:12.729Z,41.25
2022-08-26T08:49:39.529Z,41.08
2022-08-26T08:52:27.677Z,42.38
2022-08-26T08:54:55.830Z,41.82
2022-08-26T08:57:39.488Z,43.51
2022-08-26T09:00:16.238Z,43.26
2022-08-26T09:02:56.010Z,42.98
2022-08-26T09:05:30.973Z,43.91
2022-08-26T09:08:04.688Z,44.16
2022-08-26T09:10:40.438Z,45.56
2022-08-26T09:13:13.806Z,46.38
2022-08-26T09:15:58.805Z,46.85
2022-08-26T09:18:51.509Z,46.67
2022-08-26T09:21:20.410Z,47.61
2022-08-26T09:23:50.527Z,48.39
2022-08-26T09:26:28.746Z,46.43
2022-08-26T09:29:04.244Z,46.36
2022-08-26T09:31:34.166Z,43.83
2022-08-26T09:34:20.596Z,45.17
2022-08-26T09:36:58.547Z,46.49
2022-08-26T09:39:25.191Z,46.16
2022-08-26T09:42:21.146Z,46.39
2022-08-26T09:44:56.899Z,47.78
2022-08-26T09:47:39.096Z,49.64
2022-08-26T09:50:23.504Z,52.21
2022-08-26T09:53:20.997Z,52.49
2022-08-26T09:55:51.770Z,51.90
2022-08-26T09:58:30.744Z,52.04
2022-08-26T10:01:02.554Z,48.25
2022-08-26T10:03:33.912Z,47.65
2022-08-26T10:06:06.346Z,47.90
2022-08-26T10:08:40.994Z,48.91
2022-08-26T10:11:20.967Z,48.83
2022-08-26T10:14:00.551Z,49.52
2022-08-26T10:17:01.767Z,50.26
2022-08-26T10:19:41.720Z,49.19
2022-08-26T10:22:40.575Z,49.97
2022-08-26T10:25:15.227Z,50.49
2022-08-26T10:27:49.513Z,50.10
2022-08-26T10:30:23.685Z,49.43
2022-08-26T10:32:52.013Z,49.49
2022-08-26T10:35:19.722Z,49.38
2022-08-26T10:37:56.339Z,50.21
2022-08-26T10:40:25.698Z,50.01
2022-08-26T10:42:58.283Z,50.04
2022-08-26T10:45:29.122Z,50.22
2022-08-26T10:48:05.115Z,50.15
2022-08-26T10:50:47.450Z,49.35
2022-08-26T10:53:17.913Z,49.88
2022-08-26T10:55:59.824Z,47.62
2022-08-26T10:58:54.825Z,46.94
2022-08-26T11:01:44.329Z,47.90
2022-08-26T11:04:35.281Z,45.83
2022-08-26T11:07:28.915Z,47.77
2022-08-26T11:10:04.829Z,46.16
2022-08-26T11:12:34.448Z,45.71
2022-08-26T11:15:30.963Z,46.17
2022-08-26T11:18:03.808Z,45.32
2022-08-26T11:20:35.236Z,44.33
2022-08-26T11:23:20.187Z,44.54
2022-08-26T11:25:57.004Z,44.71
2022-08-26T11:28:48.363Z,43.50
2022-08-26T11:31:37.911Z,42.46
2022-08-26T11:34:07.255Z,43.36
2022-08-26T11:36:40.118Z,42.84
2022-08-26T11:39:54.018Z,42.89
2022-08-26T11:42:44.861Z,42.92
2022-08-26T11:45:39.981Z,43.22
2022-08-26T11:48:18.552Z,43.62
2022-08-26T11:51:00.135Z,42.91
2022-08-26T11:53:29.877Z,44.17
2022-08-26T11:56:01.557Z,45.79
2022-08-26T11:58:29.510Z,45.29
2022-08-26T12:00:58.033Z,44.90
2022-08-26T12:03:45.676Z,44.04
2022-08-26T12:06:43.448Z,42.68
2022-08-26T12:09:22.222Z,42.64
2022-08-26T12:11:49.128Z,41.65
2022-08-26T12:14:23.527Z,42.70
2022-08-26T12:16:52.658Z,42.09
2022-08-26T12:19:29.049Z,41.43
2022-08-26T12:22:34.546Z,42.22
2022-08-26T12:25:11.478Z,41.32
2022-08-26T12:27:44.249Z,40.53
2022-08-26T12:30:14.050Z,40.56
2022-08-26T12:32:51.101Z,42.24
2022-08-26T12:35:24.414Z,41.06
2022-08-26T12:37:54.287Z,42.09
2022-08-26T12:40:45.412Z,39.15
2022-08-26T12:43:15.026Z,39.86
2022-08-26T12:45:54.591Z,38.29
2022-08-26T12:48:34.844Z,37.79
2022-08-26T12:51:03.616Z,37.76
2022-08-26T12:53:34.453Z,37.51
2022-08-26T12:56:37.193Z,37.98
2022-08-26T12:59:07.935Z,36.89
2022-08-26T13:01:44.152Z,36.95
2022-08-26T13:04:38.854Z,40.22
2022-08-26T13:07:24.066Z,39.73
2022-08-26T13:09:54.320Z,39.46
2022-08-26T13:12:31.667Z,41.20
2022-08-26T13:15:00.481Z,42.86
2022-08-26T13:17:28.979Z,43.53
2022-08-26T13:19:59.016Z,43.73
2022-08-26T13:22:29.534Z,44.15
2022-08-26T13:24:56.953Z,44.43
2022-08-26T13:27:26.030Z,44.18
2022-08-26T13:29:53.707Z,43.53
2022-08-26T13:32:21.690Z,43.77
2022-08-26T13:34:56.225Z,41.71
2022-08-26T13:37:34.555Z,40.25
2022-08-26T13:40:06.406Z,41.50
2022-08-26T13:42:33.388Z,40.31
2022-08-26T13:45:01.329Z,40.16
2022-08-26T13:47:28.004Z,40.55
2022-08-26T13:49:57.854Z,39.79
2022-08-26T13:52:30.609Z,39.88
2022-08-26T13:54:59.066Z,40.12
2022-08-26T13:57:26.231Z,39.14
2022-08-26T13:59:52.975Z,38.82
2022-08-26T14:02:20.165Z,39.55
2022-08-26T14:04:46.846Z,39.97
2022-08-26T14:07:13.706Z,40.00
2022-08-26T14:09:40.447Z,39.19
2022-08-26T14:12:07.388Z,39.41
2022-08-26T14:14:34.232Z,39.89
2022-08-26T14:17:01.561Z,39.82
2022-08-26T14:19:30.002Z,39.36
2022-08-26T14:21:57.265Z,40.23
2022-08-26T14:24:23.909Z,39.74
2022-08-26T14:26:50.549Z,39.61
2022-08-26T14:29:17.345Z,39.34
2022-08-26T14:31:44.339Z,39.54
2022-08-26T14:34:13.971Z,39.35
2022-08-26T14:36:40.634Z,40.64
2022-08-26T14:39:10.795Z,39.94
2022-08-26T14:41:45.474Z,39.86
2022-08-26T14:44:25.781Z,39.68
2022-08-26T14:46:54.355Z,39.90
2022-08-26T14:49:28.010Z,39.23
2022-08-26T14:51:55.058Z,38.84
2022-08-26T14:54:21.779Z,39.94
2022-08-26T14:57:00.006Z,40.67
2022-08-26T14:59:32.462Z,41.10
2022-08-26T15:01:59.519Z,40.98
2022-08-26T15:04:27.209Z,40.92
2022-08-26T15:06:56.302Z,40.91
2022-08-26T15:09:23.695Z,41.41
2022-08-26T15:11:51.533Z,42.16
2022-08-26T15:14:19.904Z,42.39
2022-08-26T15:16:49.094Z,42.30
2022-08-26T15:19:16.254Z,42.33
2022-08-26T15:21:43.005Z,42.29
2022-08-26T15:24:09.638Z,41.59
2022-08-26T15:26:36.262Z,42.71
2022-08-26T15:29:05.235Z,42.75
2022-08-26T15:31:33.521Z,43.25
2022-08-26T15:34:04.210Z,42.47
2022-08-26T15:36:31.974Z,42.18
2022-08-26T15:39:00.926Z,41.72
2022-08-26T15:41:28.583Z,42.32
2022-08-26T15:43:55.466Z,41.07
2022-08-26T15:46:22.299Z,40.85
2022-08-26T15:48:51.648Z,41.33
2022-08-26T15:51:25.050Z,40.33
2022-08-26T15:53:53.910Z,40.41
2022-08-26T15:56:22.955Z,39.41
2022-08-26T15:58:49.562Z,40.12
2022-08-26T16:01:16.406Z,39.09
2022-08-26T16:03:55.296Z,39.06
2022-08-26T16:06:25.448Z,38.53
2022-08-26T16:08:52.074Z,40.48
2022-08-26T16:11:18.735Z,41.00
2022-08-26T16:13:46.257Z,42.08
2022-08-26T16:16:12.932Z,44.35
2022-08-26T16:18:39.983Z,44.50
2022-08-26T16:21:13.141Z,45.77
2022-08-26T16:23:45.000Z,46.57
2022-08-26T16:26:18.688Z,46.00
2022-08-26T16:28:45.896Z,45.52
2022-08-26T16:31:13.248Z,45.60
2022-08-26T16:33:40.242Z,45.48
2022-08-26T16:36:09.045Z,45.97
2022-08-26T16:38:36.890Z,45.77
2022-08-26T16:41:05.102Z,45.57
2022-08-26T16:43:31.874Z,47.33
2022-08-26T16:45:58.614Z,47.87
2022-08-26T16:48:25.490Z,47.77
2022-08-26T16:50:52.255Z,48.57
2022-08-26T16:53:19.267Z,49.40
2022-08-26T16:55:48.371Z,48.61
2022-08-26T16:58:15.673Z,48.60
2022-08-26T17:00:42.533Z,48.80
2022-08-26T17:03:09.597Z,46.81
2022-08-26T17:05:36.494Z,46.30
2022-08-26T17:08:04.845Z,46.18
2022-08-26T17:10:32.760Z,45.83
2022-08-26T17:13:00.069Z,47.30
2022-08-26T17:15:26.962Z,45.37
2022-08-26T17:17:54.544Z,45.60
2022-08-26T17:20:23.577Z,47.02
2022-08-26T17:22:53.061Z,45.91
2022-08-26T17:25:29.779Z,44.54
2022-08-26T17:30:28.015Z,48.06
2022-08-26T17:32:58.031Z,48.83
2022-08-26T17:35:26.470Z,50.37
2022-08-26T17:37:53.570Z,52.10
2022-08-26T17:40:24.401Z,51.63
2022-08-26T17:42:51.777Z,50.17
2022-08-26T17:47:45.672Z,49.89
2022-08-26T17:50:16.264Z,48.78
2022-08-26T17:52:44.199Z,50.69
2022-08-26T17:55:14.257Z,50.86
2022-08-26T17:57:53.290Z,50.35
2022-08-26T18:00:22.758Z,51.09
2022-08-26T18:02:49.395Z,50.37
2022-08-26T18:05:16.608Z,51.63
2022-08-26T18:07:44.284Z,51.75
2022-08-26T18:10:14.533Z,51.95
2022-08-26T18:12:41.611Z,52.58
2022-08-26T18:15:10.990Z,52.34
2022-08-26T18:17:38.874Z,52.20
2022-08-26T18:20:08.462Z,50.34
2022-08-26T18:22:35.098Z,49.41
2022-08-26T18:25:01.793Z,48.98
2022-08-26T18:27:28.422Z,48.65
2022-08-26T18:29:55.087Z,48.74
2022-08-26T18:32:21.730Z,48.00
2022-08-26T18:34:48.339Z,47.65
2022-08-26T18:37:15.260Z,47.82
2022-08-26T18:39:41.915Z,48.86
2022-08-26T18:42:08.975Z,48.89
2022-08-26T18:44:36.249Z,49.33
2022-08-26T18:47:02.976Z,48.98
2022-08-26T18:49:29.740Z,47.86
2022-08-26T18:51:56.420Z,48.67
2022-08-26T18:54:23.071Z,48.61
2022-08-26T18:56:49.894Z,49.90
2022-08-26T18:59:16.505Z,50.08
2022-08-26T19:01:43.623Z,49.54
2022-08-26T19:04:12.865Z,49.50
2022-08-26T19:06:42.333Z,49.93
2022-08-26T19:09:11.881Z,50.38
2022-08-26T19:11:42.915Z,48.83
2022-08-26T19:14:15.968Z,48.94
2022-08-26T19:16:45.914Z,50.37
2022-08-26T19:19:14.209Z,49.97
2022-08-26T19:21:41.031Z,48.98
2022-08-26T19:24:11.262Z,49.53
2022-08-26T19:26:38.166Z,50.40
2022-08-26T19:29:08.374Z,50.76
2022-08-26T19:31:35.283Z,50.23
2022-08-26T19:34:02.030Z,50.19
2022-08-26T19:36:30.784Z,49.78
2022-08-26T19:38:58.237Z,50.14
2022-08-26T19:41:37.023Z,50.78
2022-08-26T19:44:14.458Z,50.49
2022-08-26T19:46:41.338Z,49.49
2022-08-26T19:49:10.698Z,49.47
2022-08-26T19:51:37.358Z,50.54
2022-08-26T19:54:04.588Z,49.66
2022-08-26T19:56:31.269Z,50.73
2022-08-26T19:58:57.924Z,50.55
2022-08-26T20:01:25.076Z,49.68
2022-08-26T20:03:51.794Z,50.83
2022-08-26T20:06:19.086Z,48.98
2022-08-26T20:08:46.083Z,48.37
2022-08-26T20:11:16.651Z,46.94
2022-08-26T20:13:45.932Z,46.29
2022-08-26T20:16:14.174Z,45.41
2022-08-26T20:18:42.174Z,45.32
2022-08-26T20:21:08.810Z,44.82
2022-08-26T20:23:35.690Z,44.92
2022-08-26T20:26:02.728Z,44.86
2022-08-26T20:28:29.824Z,44.65
2022-08-26T20:30:56.533Z,44.34
2022-08-26T20:33:23.300Z,44.34
2022-08-26T20:35:49.941Z,45.22
2022-08-26T20:38:20.939Z,45.61
2022-08-26T20:40:48.839Z,46.45
2022-08-26T20:43:15.471Z,45.93
2022-08-26T20:45:42.306Z,45.73
2022-08-26T20:48:12.314Z,45.37
2022-08-26T20:50:39.223Z,46.94
2022-08-26T20:53:08.529Z,46.21
2022-08-26T20:55:35.223Z,46.91
2022-08-26T20:58:01.851Z,47.42
2022-08-26T21:00:28.832Z,49.66
2022-08-26T21:02:55.538Z,49.79
2022-08-26T21:05:22.766Z,51.51
2022-08-26T21:07:49.414Z,52.99
2022-08-26T21:10:16.152Z,51.63
2022-08-26T21:12:43.877Z,49.81
2022-08-26T21:15:10.788Z,49.28
2022-08-26T21:17:37.419Z,48.41
2022-08-26T21:20:04.624Z,49.39
2022-08-26T21:22:31.267Z,50.05
2022-08-26T21:24:57.887Z,49.90
2022-08-26T21:27:26.451Z,50.15
2022-08-26T21:29:54.600Z,49.66
2022-08-26T21:32:21.256Z,49.30
2022-08-26T21:34:47.941Z,49.20
2022-08-26T21:37:16.890Z,50.12
2022-08-26T21:39:43.974Z,50.34
2022-08-26T21:42:10.625Z,50.37
2022-08-26T21:44:37.385Z,49.24
2022-08-26T21:47:04.174Z,49.06
2022-08-26T21:49:31.220Z,49.88
2022-08-26T21:51:57.840Z,49.99
2022-08-26T21:54:24.448Z,49.45
2022-08-26T21:56:51.360Z,48.74
2022-08-26T21:59:19.006Z,48.94
2022-08-26T22:01:46.359Z,48.96
2022-08-26T22:04:15.776Z,48.92
2022-08-26T22:06:46.431Z,49.25
2022-08-26T22:09:15.637Z,49.56
2022-08-26T22:11:42.764Z,49.62
2022-08-26T22:14:09.846Z,50.67
2022-08-26T22:16:37.221Z,50.90
2022-08-26T22:19:03.902Z,50.92
2022-08-26T22:21:30.594Z,51.08
2022-08-26T22:23:58.202Z,51.84
2022-08-26T22:26:27.986Z,52.99
2022-08-26T22:28:58.566Z,52.57
2022-08-26T22:31:35.270Z,52.82
2022-08-26T22:34:06.502Z,52.25
2022-08-26T22:36:33.142Z,53.78
2022-08-26T22:39:01.022Z,52.83
2022-08-26T22:41:27.731Z,54.36
2022-08-26T22:43:55.255Z,53.02
2022-08-26T22:46:27.286Z,51.75
2022-08-26T22:48:54.670Z,53.99
2022-08-26T22:51:22.042Z,53.29
2022-08-26T22:53:49.168Z,52.24
2022-08-26T22:56:16.464Z,51.62
2022-08-26T22:58:43.083Z,53.03
2022-08-26T23:01:09.918Z,54.34
2022-08-26T23:03:40.535Z,54.00
2022-08-26T23:06:09.347Z,54.87
2022-08-26T23:08:36.589Z,53.56
2022-08-26T23:11:08.856Z,52.21
2022-08-26T23:13:35.702Z,52.86
2022-08-26T23:16:07.083Z,54.42
2022-08-26T23:18:33.843Z,56.41
2022-08-26T23:21:00.910Z,56.66
2022-08-26T23:23:27.709Z,57.49
2022-08-26T23:25:55.483Z,59.46
2022-08-26T23:28:23.402Z,60.88
2022-08-26T23:30:50.371Z,60.65
2022-08-26T23:33:17.089Z,60.95
2022-08-26T23:35:44.281Z,61.56
2022-08-26T23:38:11.783Z,61.67
2022-08-26T23:40:41.650Z,61.54
2022-08-26T23:43:10.136Z,62.17
2022-08-26T23:45:37.118Z,62.00
2022-08-26T23:48:06.174Z,61.40
2022-08-26T23:50:32.992Z,62.54
2022-08-26T23:52:59.693Z,62.38
2022-08-26T23:55:26.320Z,62.75
2022-08-26T23:57:52.978Z,63.26
